sensor_id;sensor_type;location;lat;lon;timestamp;pressure;altitude;pressure_sealevel;temperature;humidity
48774;BME280;34576;0.000;0.000;2023-09-19T00:02:56;96488.03;;;21.23;66.48
48774;BME280;34576;0.000;0.000;2023-09-19T00:09:59;96492.06;;;20.69;67.28
48774;BME280;34576;0.000;0.000;2023-09-19T00:17:00;96502.03;;;21.19;66.39
48774;BME280;34576;0.000;0.000;2023-09-19T00:24:00;96493.69;;;21.21;66.30
48774;BME280;34576;0.000;0.000;2023-09-19T00:31:01;96497.81;;;21.27;65.61
48774;BME280;34576;0.000;0.000;2023-09-19T00:38:02;96500.25;;;20.73;67.24
48774;BME280;34576;0.000;0.000;2023-09-19T00:45:03;96498.75;;;21.09;66.32
48774;BME280;34576;0.000;0.000;2023-09-19T00:52:05;96496.38;;;21.21;64.69
48774;BME280;34576;0.000;0.000;2023-09-19T00:59:05;96497.84;;;21.13;66.19
48774;BME280;34576;0.000;0.000;2023-09-19T01:06:06;96506.78;;;21.09;66.92
48774;BME280;34576;0.000;0.000;2023-09-19T01:27:24;96508.88;;;20.70;66.61
48774;BME280;34576;0.000;0.000;2023-09-19T01:34:26;96515.13;;;20.79;65.27
48774;BME280;34576;0.000;0.000;2023-09-19T01:41:30;96508.97;;;20.79;61.80
48774;BME280;34576;0.000;0.000;2023-09-19T01:55:52;96516.69;;;20.94;61.45
48774;BME280;34576;0.000;0.000;2023-09-19T02:02:53;96507.59;;;20.95;61.17
48774;BME280;34576;0.000;0.000;2023-09-19T02:09:58;96524.41;;;20.82;60.25
48774;BME280;34576;0.000;0.000;2023-09-19T02:17:00;96528.28;;;20.76;60.38
48774;BME280;34576;0.000;0.000;2023-09-19T02:24:00;96532.34;;;20.73;60.67
48774;BME280;34576;0.000;0.000;2023-09-19T02:31:01;96527.94;;;20.63;60.86
48774;BME280;34576;0.000;0.000;2023-09-19T02:38:01;96547.09;;;20.71;60.87
48774;BME280;34576;0.000;0.000;2023-09-19T02:45:04;96537.50;;;20.69;61.27
48774;BME280;34576;0.000;0.000;2023-09-19T02:52:06;96541.09;;;20.46;60.95
48774;BME280;34576;0.000;0.000;2023-09-19T02:59:07;96548.91;;;20.42;61.85
48774;BME280;34576;0.000;0.000;2023-09-19T03:06:10;96535.84;;;20.55;62.58
48774;BME280;34576;0.000;0.000;2023-09-19T03:13:10;96537.50;;;20.69;62.32
48774;BME280;34576;0.000;0.000;2023-09-19T03:20:12;96545.13;;;20.43;64.02
48774;BME280;34576;0.000;0.000;2023-09-19T03:27:14;96542.69;;;20.47;64.39
48774;BME280;34576;0.000;0.000;2023-09-19T03:34:16;96548.47;;;20.21;65.18
48774;BME280;34576;0.000;0.000;2023-09-19T03:41:17;96546.16;;;20.61;64.45
48774;BME280;34576;0.000;0.000;2023-09-19T03:48:18;96538.88;;;20.95;64.09
48774;BME280;34576;0.000;0.000;2023-09-19T03:55:20;96541.84;;;21.07;63.83
48774;BME280;34576;0.000;0.000;2023-09-19T04:02:21;96542.06;;;21.11;63.96
48774;BME280;34576;0.000;0.000;2023-09-19T04:09:25;96544.59;;;21.16;63.87
48774;BME280;34576;0.000;0.000;2023-09-19T04:16:25;96552.16;;;21.14;64.17
48774;BME280;34576;0.000;0.000;2023-09-19T04:23:26;96557.69;;;21.17;64.54
48774;BME280;34576;0.000;0.000;2023-09-19T04:30:28;96561.03;;;20.67;65.71
48774;BME280;34576;0.000;0.000;2023-09-19T04:37:28;96554.34;;;20.98;63.48
48774;BME280;34576;0.000;0.000;2023-09-19T04:44:29;96560.56;;;20.32;65.92
48774;BME280;34576;0.000;0.000;2023-09-19T04:51:29;96584.63;;;18.89;69.56
48774;BME280;34576;0.000;0.000;2023-09-19T04:58:34;96590.97;;;19.60;67.07
48774;BME280;34576;0.000;0.000;2023-09-19T05:05:34;96590.44;;;20.67;63.97
48774;BME280;34576;0.000;0.000;2023-09-19T05:12:41;96594.53;;;20.79;63.34
48774;BME280;34576;0.000;0.000;2023-09-19T05:19:43;96593.16;;;20.95;63.07
48774;BME280;34576;0.000;0.000;2023-09-19T05:26:44;96604.03;;;20.99;62.88
48774;BME280;34576;0.000;0.000;2023-09-19T05:33:45;96607.53;;;20.99;62.97
48774;BME280;34576;0.000;0.000;2023-09-19T05:40:46;96619.09;;;20.95;62.63
48774;BME280;34576;0.000;0.000;2023-09-19T05:47:46;96633.75;;;20.97;62.59
48774;BME280;34576;0.000;0.000;2023-09-19T05:54:46;96640.00;;;20.93;62.77
48774;BME280;34576;0.000;0.000;2023-09-19T06:01:47;96647.22;;;20.92;62.74
48774;BME280;34576;0.000;0.000;2023-09-19T06:08:47;96649.38;;;20.90;62.94
48774;BME280;34576;0.000;0.000;2023-09-19T06:15:50;96656.22;;;20.96;62.54
48774;BME280;34576;0.000;0.000;2023-09-19T06:22:51;96665.66;;;20.94;62.64
48774;BME280;34576;0.000;0.000;2023-09-19T06:29:52;96672.56;;;20.95;62.48
48774;BME280;34576;0.000;0.000;2023-09-19T06:36:52;96672.56;;;20.95;62.64
48774;BME280;34576;0.000;0.000;2023-09-19T06:43:52;96673.38;;;20.95;62.08
48774;BME280;34576;0.000;0.000;2023-09-19T06:50:53;96677.91;;;20.95;61.92
48774;BME280;34576;0.000;0.000;2023-09-19T06:57:55;96689.41;;;20.95;61.64
48774;BME280;34576;0.000;0.000;2023-09-19T07:04:55;96681.88;;;20.97;61.49
48774;BME280;34576;0.000;0.000;2023-09-19T07:11:55;96691.44;;;21.03;61.43
48774;BME280;34576;0.000;0.000;2023-09-19T07:18:56;96697.84;;;21.02;61.44
48774;BME280;34576;0.000;0.000;2023-09-19T07:25:56;96696.78;;;21.03;61.25
48774;BME280;34576;0.000;0.000;2023-09-19T07:32:57;96695.00;;;21.13;61.27
48774;BME280;34576;0.000;0.000;2023-09-19T07:39:57;96701.13;;;21.13;60.87
48774;BME280;34576;0.000;0.000;2023-09-19T07:46:58;96712.41;;;21.10;60.79
48774;BME280;34576;0.000;0.000;2023-09-19T07:53:58;96715.59;;;21.12;60.94
48774;BME280;34576;0.000;0.000;2023-09-19T08:01:02;96715.38;;;21.09;60.61
48774;BME280;34576;0.000;0.000;2023-09-19T08:08:02;96728.69;;;21.14;60.64
48774;BME280;34576;0.000;0.000;2023-09-19T08:15:03;96733.94;;;21.19;60.33
48774;BME280;34576;0.000;0.000;2023-09-19T08:22:03;96735.34;;;21.16;60.38
48774;BME280;34576;0.000;0.000;2023-09-19T08:29:04;96750.56;;;21.16;60.12
48774;BME280;34576;0.000;0.000;2023-09-19T08:36:07;96752.25;;;21.12;60.35
48774;BME280;34576;0.000;0.000;2023-09-19T08:43:09;96752.47;;;21.15;60.62
48774;BME280;34576;0.000;0.000;2023-09-19T08:50:16;96761.19;;;21.21;59.91
48774;BME280;34576;0.000;0.000;2023-09-19T08:57:19;96772.59;;;21.27;59.43
48774;BME280;34576;0.000;0.000;2023-09-19T09:04:22;96769.94;;;21.27;59.35
48774;BME280;34576;0.000;0.000;2023-09-19T09:11:22;96766.72;;;21.25;59.21
48774;BME280;34576;0.000;0.000;2023-09-19T09:18:26;96765.56;;;21.31;59.55
48774;BME280;34576;0.000;0.000;2023-09-19T09:26:08;96776.28;;;21.31;59.24
48774;BME280;34576;0.000;0.000;2023-09-19T09:33:07;96765.28;;;21.32;59.25
48774;BME280;34576;0.000;0.000;2023-09-19T09:40:08;96773.09;;;21.29;59.17
48774;BME280;34576;0.000;0.000;2023-09-19T09:47:50;96769.81;;;21.32;59.09
48774;BME280;34576;0.000;0.000;2023-09-19T09:54:59;96772.72;;;21.35;59.39
48774;BME280;34576;0.000;0.000;2023-09-19T10:02:01;96776.28;;;21.45;59.53
48774;BME280;34576;0.000;0.000;2023-09-19T10:09:09;96765.31;;;21.46;59.66
48774;BME280;34576;0.000;0.000;2023-09-19T10:16:16;96764.19;;;21.47;59.78
48774;BME280;34576;0.000;0.000;2023-09-19T10:23:20;96763.41;;;21.47;60.10
48774;BME280;34576;0.000;0.000;2023-09-19T10:30:23;96758.53;;;21.49;59.85
48774;BME280;34576;0.000;0.000;2023-09-19T10:37:23;96755.56;;;21.50;60.05
48774;BME280;34576;0.000;0.000;2023-09-19T10:44:26;96751.34;;;21.49;60.03
48774;BME280;34576;0.000;0.000;2023-09-19T10:51:26;96738.72;;;21.50;59.91
48774;BME280;34576;0.000;0.000;2023-09-19T10:58:31;96746.75;;;21.50;60.43
48774;BME280;34576;0.000;0.000;2023-09-19T11:05:34;96733.38;;;21.50;60.29
48774;BME280;34576;0.000;0.000;2023-09-19T11:27:16;96726.94;;;21.51;60.09
48774;BME280;34576;0.000;0.000;2023-09-19T11:41:37;96724.28;;;21.51;60.21
48774;BME280;34576;0.000;0.000;2023-09-19T11:48:38;96713.28;;;21.52;60.12
48774;BME280;34576;0.000;0.000;2023-09-19T11:55:40;96711.69;;;21.51;60.03
48774;BME280;34576;0.000;0.000;2023-09-19T12:02:43;96709.81;;;21.52;60.54
48774;BME280;34576;0.000;0.000;2023-09-19T12:09:50;96704.19;;;21.53;60.52
48774;BME280;34576;0.000;0.000;2023-09-19T12:16:57;96699.63;;;21.54;60.63
48774;BME280;34576;0.000;0.000;2023-09-19T12:24:11;96699.63;;;21.54;60.75
48774;BME280;34576;0.000;0.000;2023-09-19T12:31:13;96695.34;;;21.53;60.64
48774;BME280;34576;0.000;0.000;2023-09-19T12:38:22;96678.97;;;21.54;60.73
48774;BME280;34576;0.000;0.000;2023-09-19T12:45:24;96671.47;;;21.57;60.79
48774;BME280;34576;0.000;0.000;2023-09-19T12:52:25;96666.91;;;21.57;60.97
48774;BME280;34576;0.000;0.000;2023-09-19T12:59:29;96665.50;;;21.74;57.89
48774;BME280;34576;0.000;0.000;2023-09-19T13:06:37;96657.78;;;21.58;58.73
48774;BME280;34576;0.000;0.000;2023-09-19T13:13:44;96654.59;;;21.56;59.33
48774;BME280;34576;0.000;0.000;2023-09-19T13:21:09;96645.47;;;21.57;59.74
48774;BME280;34576;0.000;0.000;2023-09-19T13:28:12;96634.16;;;21.60;60.89
48774;BME280;34576;0.000;0.000;2023-09-19T13:35:13;96638.44;;;21.61;60.17
48774;BME280;34576;0.000;0.000;2023-09-19T13:42:14;96630.41;;;21.61;59.98
48774;BME280;34576;0.000;0.000;2023-09-19T13:49:14;96625.06;;;21.61;59.93
48774;BME280;34576;0.000;0.000;2023-09-19T13:56:15;96613.75;;;21.64;60.08
48774;BME280;34576;0.000;0.000;2023-09-19T14:03:15;96613.75;;;21.64;60.03
48774;BME280;34576;0.000;0.000;2023-09-19T14:10:15;96607.63;;;21.64;59.79
48774;BME280;34576;0.000;0.000;2023-09-19T14:17:16;96606.09;;;21.71;57.61
48774;BME280;34576;0.000;0.000;2023-09-19T14:24:17;96599.28;;;21.65;57.72
48774;BME280;34576;0.000;0.000;2023-09-19T14:31:17;96589.66;;;21.64;57.59
48774;BME280;34576;0.000;0.000;2023-09-19T14:38:19;96588.88;;;21.64;57.64
48774;BME280;34576;0.000;0.000;2023-09-19T14:45:19;96581.44;;;21.61;57.72
48774;BME280;34576;0.000;0.000;2023-09-19T14:52:19;96590.75;;;21.63;58.10
48774;BME280;34576;0.000;0.000;2023-09-19T14:59:20;96589.47;;;21.61;58.62
48774;BME280;34576;0.000;0.000;2023-09-19T15:06:20;96574.41;;;21.65;58.23
48774;BME280;34576;0.000;0.000;2023-09-19T15:13:21;96566.38;;;21.65;58.90
48774;BME280;34576;0.000;0.000;2023-09-19T15:20:21;96578.16;;;21.64;58.91
48774;BME280;34576;0.000;0.000;2023-09-19T15:27:22;96583.81;;;21.62;59.14
48774;BME280;34576;0.000;0.000;2023-09-19T15:34:22;96580.84;;;21.64;58.96
48774;BME280;34576;0.000;0.000;2023-09-19T15:41:23;96581.63;;;21.64;59.19
48774;BME280;34576;0.000;0.000;2023-09-19T15:48:23;96574.41;;;21.65;59.11
48774;BME280;34576;0.000;0.000;2023-09-19T15:55:24;96570.91;;;21.64;59.11
48774;BME280;34576;0.000;0.000;2023-09-19T16:02:26;96572.50;;;21.65;59.52
48774;BME280;34576;0.000;0.000;2023-09-19T16:09:26;96574.09;;;21.66;59.29
48774;BME280;34576;0.000;0.000;2023-09-19T16:16:26;96570.31;;;21.67;59.31
48774;BME280;34576;0.000;0.000;2023-09-19T16:23:30;96564.47;;;21.65;59.48
48774;BME280;34576;0.000;0.000;2023-09-19T16:30:34;96560.72;;;21.66;59.60
48774;BME280;34576;0.000;0.000;2023-09-19T16:37:36;96556.16;;;21.67;59.58
48774;BME280;34576;0.000;0.000;2023-09-19T16:44:38;96558.81;;;21.67;59.66
48774;BME280;34576;0.000;0.000;2023-09-19T16:51:38;96568.75;;;21.66;59.32
48774;BME280;34576;0.000;0.000;2023-09-19T16:58:42;96568.75;;;21.66;59.07
48774;BME280;34576;0.000;0.000;2023-09-19T17:05:42;96581.00;;;21.67;58.83
48774;BME280;34576;0.000;0.000;2023-09-19T17:12:44;96587.47;;;21.66;58.90
48774;BME280;34576;0.000;0.000;2023-09-19T17:19:45;96593.94;;;21.65;58.67
48774;BME280;34576;0.000;0.000;2023-09-19T17:26:45;96595.00;;;21.64;58.81
48774;BME280;34576;0.000;0.000;2023-09-19T17:33:46;96592.34;;;21.64;58.07
48774;BME280;34576;0.000;0.000;2023-09-19T17:40:47;96601.78;;;20.92;57.80
48774;BME280;34576;0.000;0.000;2023-09-19T17:47:49;96603.25;;;20.51;57.97
48774;BME280;34576;0.000;0.000;2023-09-19T17:54:50;96616.72;;;20.27;58.89
48774;BME280;34576;0.000;0.000;2023-09-19T18:01:51;96616.75;;;19.03;61.13
48774;BME280;34576;0.000;0.000;2023-09-19T18:08:52;96615.06;;;19.31;60.55
48774;BME280;34576;0.000;0.000;2023-09-19T18:15:52;96621.97;;;19.13;61.20
48774;BME280;34576;0.000;0.000;2023-09-19T18:22:54;96629.59;;;20.25;57.89
48774;BME280;34576;0.000;0.000;2023-09-19T18:29:55;96633.72;;;20.50;56.73
48774;BME280;34576;0.000;0.000;2023-09-19T18:36:55;96633.25;;;20.29;57.25
48774;BME280;34576;0.000;0.000;2023-09-19T18:43:58;96634.75;;;21.01;57.14
48774;BME280;34576;0.000;0.000;2023-09-19T18:51:03;96646.94;;;21.21;58.54
48774;BME280;34576;0.000;0.000;2023-09-19T18:58:04;96643.09;;;21.28;58.12
48774;BME280;34576;0.000;0.000;2023-09-19T19:05:06;96654.78;;;21.32;58.71
48774;BME280;34576;0.000;0.000;2023-09-19T19:12:08;96661.94;;;21.36;58.93
48774;BME280;34576;0.000;0.000;2023-09-19T19:19:11;96666.69;;;21.40;59.48
48774;BME280;34576;0.000;0.000;2023-09-19T19:26:12;96674.09;;;21.43;58.90
48774;BME280;34576;0.000;0.000;2023-09-19T19:33:13;96673.03;;;21.44;59.51
48774;BME280;34576;0.000;0.000;2023-09-19T19:40:14;96687.19;;;21.44;59.97
48774;BME280;34576;0.000;0.000;2023-09-19T19:47:14;96687.28;;;21.39;59.77
48774;BME280;34576;0.000;0.000;2023-09-19T19:54:15;96691.25;;;21.42;59.87
48774;BME280;34576;0.000;0.000;2023-09-19T20:01:16;96698.97;;;21.43;60.29
48774;BME280;34576;0.000;0.000;2023-09-19T20:08:17;96695.50;;;21.43;60.61
48774;BME280;34576;0.000;0.000;2023-09-19T20:15:17;96687.78;;;21.41;60.78
48774;BME280;34576;0.000;0.000;2023-09-19T20:22:19;96691.25;;;21.42;60.99
48774;BME280;34576;0.000;0.000;2023-09-19T20:29:20;96699.78;;;21.44;60.85
48774;BME280;34576;0.000;0.000;2023-09-19T20:36:22;96688.28;;;21.43;61.13
48774;BME280;34576;0.000;0.000;2023-09-19T20:43:22;96686.06;;;21.17;61.20
48774;BME280;34576;0.000;0.000;2023-09-19T20:50:25;96700.16;;;21.09;60.82
48774;BME280;34576;0.000;0.000;2023-09-19T20:57:26;96695.59;;;21.10;60.76
48774;BME280;34576;0.000;0.000;2023-09-19T21:04:27;96689.44;;;21.09;60.53
48774;BME280;34576;0.000;0.000;2023-09-19T21:11:27;96692.91;;;21.10;60.16
48774;BME280;34576;0.000;0.000;2023-09-19T21:18:28;96688.16;;;21.07;60.29
48774;BME280;34576;0.000;0.000;2023-09-19T21:25:28;96691.44;;;21.03;60.12
48774;BME280;34576;0.000;0.000;2023-09-19T21:32:29;96678.53;;;21.06;60.14
48774;BME280;34576;0.000;0.000;2023-09-19T21:39:30;96689.72;;;21.08;60.16
48774;BME280;34576;0.000;0.000;2023-09-19T21:46:31;96686.78;;;21.09;60.37
48774;BME280;34576;0.000;0.000;2023-09-19T21:53:31;96668.13;;;21.04;60.43
48774;BME280;34576;0.000;0.000;2023-09-19T22:00:31;96667.75;;;21.11;60.44
48774;BME280;34576;0.000;0.000;2023-09-19T22:07:38;96677.53;;;21.01;60.82
48774;BME280;34576;0.000;0.000;2023-09-19T22:14:39;96663.88;;;21.03;60.44
48774;BME280;34576;0.000;0.000;2023-09-19T22:21:40;96665.03;;;20.83;60.40
48774;BME280;34576;0.000;0.000;2023-09-19T22:28:41;96654.69;;;21.09;59.92
48774;BME280;34576;0.000;0.000;2023-09-19T22:35:42;96642.84;;;20.96;60.03
48774;BME280;34576;0.000;0.000;2023-09-19T22:42:44;96648.50;;;20.95;60.03
48774;BME280;34576;0.000;0.000;2023-09-19T22:49:48;96646.53;;;21.00;60.03
48774;BME280;34576;0.000;0.000;2023-09-19T22:56:48;96635.84;;;21.00;60.02
48774;BME280;34576;0.000;0.000;2023-09-19T23:03:51;96633.56;;;20.94;60.00
48774;BME280;34576;0.000;0.000;2023-09-19T23:10:52;96631.88;;;20.84;60.57
48774;BME280;34576;0.000;0.000;2023-09-19T23:17:53;96635.94;;;20.95;60.25
48774;BME280;34576;0.000;0.000;2023-09-19T23:24:54;96638.63;;;20.95;60.30
48774;BME280;34576;0.000;0.000;2023-09-19T23:32:12;96631.06;;;20.97;60.66
48774;BME280;34576;0.000;0.000;2023-09-19T23:39:14;96626.63;;;20.93;60.46
48774;BME280;34576;0.000;0.000;2023-09-19T23:46:15;96640.28;;;20.91;60.38
48774;BME280;34576;0.000;0.000;2023-09-19T23:53:15;96625.44;;;20.85;60.90
